sensor_id;sensor_type;location;lat;lon;timestamp;pressure;altitude;pressure_sealevel;temperature;humidity
18652;BME280;9455;54.302;10.124;2022-08-19T00:00:21;101196.16;;;18.94;nan
18652;BME280;9455;54.302;10.124;2022-08-19T00:02:48;101195.97;;;18.96;nan
18652;BME280;9455;54.302;10.124;2022-08-19T00:05:15;101196.25;;;19.01;nan
18652;BME280;9455;54.302;10.124;2022-08-19T00:07:43;101193.38;;;19.02;nan
18652;BME280;9455;54.302;10.124;2022-08-19T00:10:11;101191.72;;;19.01;nan
18652;BME280;9455;54.302;10.124;2022-08-19T00:12:38;101184.56;;;19.08;nan
18652;BME280;9455;54.302;10.124;2022-08-19T00:15:06;101179.00;;;19.10;nan
18652;BME280;9455;54.302;10.124;2022-08-19T00:17:38;101189.81;;;19.10;nan
18652;BME280;9455;54.302;10.124;2022-08-19T00:20:06;101190.84;;;19.01;nan
18652;BME280;9455;54.302;10.124;2022-08-19T00:22:33;101195.91;;;19.04;nan
18652;BME280;9455;54.302;10.124;2022-08-19T00:25:01;101190.16;;;19.07;nan
18652;BME280;9455;54.302;10.124;2022-08-19T00:27:28;101181.53;;;19.12;nan
18652;BME280;9455;54.302;10.124;2022-08-19T00:29:55;101185.38;;;19.17;nan
18652;BME280;9455;54.302;10.124;2022-08-19T00:32:21;101179.97;;;19.17;nan
18652;BME280;9455;54.302;10.124;2022-08-19T00:34:48;101177.78;;;19.13;nan
18652;BME280;9455;54.302;10.124;2022-08-19T00:37:17;101173.59;;;19.10;nan
18652;BME280;9455;54.302;10.124;2022-08-19T00:39:44;101165.47;;;19.10;nan
18652;BME280;9455;54.302;10.124;2022-08-19T00:42:12;101165.66;;;19.08;nan
18652;BME280;9455;54.302;10.124;2022-08-19T00:44:41;101159.22;;;19.09;nan
18652;BME280;9455;54.302;10.124;2022-08-19T00:47:08;101162.41;;;19.13;nan
18652;BME280;9455;54.302;10.124;2022-08-19T00:49:39;101174.09;;;19.14;nan
18652;BME280;9455;54.302;10.124;2022-08-19T00:52:12;101170.00;;;19.18;nan
18652;BME280;9455;54.302;10.124;2022-08-19T00:54:41;101167.31;;;19.09;nan
18652;BME280;9455;54.302;10.124;2022-08-19T00:57:10;101169.66;;;19.21;nan
18652;BME280;9455;54.302;10.124;2022-08-19T00:59:42;101167.94;;;19.20;nan
18652;BME280;9455;54.302;10.124;2022-08-19T01:02:10;101170.81;;;19.18;nan
18652;BME280;9455;54.302;10.124;2022-08-19T01:04:37;101164.72;;;19.24;nan
18652;BME280;9455;54.302;10.124;2022-08-19T01:07:04;101156.28;;;19.27;nan
18652;BME280;9455;54.302;10.124;2022-08-19T01:09:31;101156.31;;;19.19;nan
18652;BME280;9455;54.302;10.124;2022-08-19T01:11:57;101151.91;;;19.18;nan
18652;BME280;9455;54.302;10.124;2022-08-19T01:14:25;101150.19;;;19.25;nan
18652;BME280;9455;54.302;10.124;2022-08-19T01:16:54;101146.66;;;19.17;nan
18652;BME280;9455;54.302;10.124;2022-08-19T01:19:26;101143.25;;;19.23;nan
18652;BME280;9455;54.302;10.124;2022-08-19T01:21:58;101141.41;;;19.23;nan
18652;BME280;9455;54.302;10.124;2022-08-19T01:24:27;101136.88;;;19.16;nan
18652;BME280;9455;54.302;10.124;2022-08-19T01:26:56;101147.34;;;19.19;nan
18652;BME280;9455;54.302;10.124;2022-08-19T01:29:24;101139.75;;;19.14;nan
18652;BME280;9455;54.302;10.124;2022-08-19T01:31:50;101135.38;;;19.13;nan
18652;BME280;9455;54.302;10.124;2022-08-19T01:34:19;101132.91;;;19.03;nan
18652;BME280;9455;54.302;10.124;2022-08-19T01:36:47;101130.38;;;19.02;nan
18652;BME280;9455;54.302;10.124;2022-08-19T01:39:22;101135.19;;;18.92;nan
18652;BME280;9455;54.302;10.124;2022-08-19T01:41:51;101133.44;;;18.99;nan
18652;BME280;9455;54.302;10.124;2022-08-19T01:44:20;101126.03;;;18.93;nan
18652;BME280;9455;54.302;10.124;2022-08-19T01:46:50;101137.81;;;19.00;nan
18652;BME280;9455;54.302;10.124;2022-08-19T01:49:18;101128.41;;;18.96;nan
18652;BME280;9455;54.302;10.124;2022-08-19T01:51:45;101131.63;;;18.91;nan
18652;BME280;9455;54.302;10.124;2022-08-19T01:54:13;101122.53;;;18.92;nan
18652;BME280;9455;54.302;10.124;2022-08-19T01:56:40;101116.69;;;18.73;nan
18652;BME280;9455;54.302;10.124;2022-08-19T01:59:12;101119.03;;;18.84;nan
18652;BME280;9455;54.302;10.124;2022-08-19T02:01:39;101122.53;;;18.92;nan
18652;BME280;9455;54.302;10.124;2022-08-19T02:04:06;101120.63;;;18.93;nan
18652;BME280;9455;54.302;10.124;2022-08-19T02:06:33;101118.34;;;18.82;nan
18652;BME280;9455;54.302;10.124;2022-08-19T02:09:01;101112.75;;;18.83;nan
18652;BME280;9455;54.302;10.124;2022-08-19T02:11:30;101111.91;;;18.83;nan
18652;BME280;9455;54.302;10.124;2022-08-19T02:13:57;101114.50;;;18.76;nan
18652;BME280;9455;54.302;10.124;2022-08-19T02:16:25;101104.22;;;18.72;nan
18652;BME280;9455;54.302;10.124;2022-08-19T02:18:52;101101.50;;;18.72;nan
18652;BME280;9455;54.302;10.124;2022-08-19T02:21:20;101099.78;;;18.79;nan
18652;BME280;9455;54.302;10.124;2022-08-19T02:23:48;101096.38;;;18.85;nan
18652;BME280;9455;54.302;10.124;2022-08-19T02:26:15;101096.38;;;18.85;nan
18652;BME280;9455;54.302;10.124;2022-08-19T02:28:42;101091.03;;;18.77;nan
18652;BME280;9455;54.302;10.124;2022-08-19T02:31:09;101094.19;;;18.80;nan
18652;BME280;9455;54.302;10.124;2022-08-19T02:33:38;101089.31;;;18.76;nan
18652;BME280;9455;54.302;10.124;2022-08-19T02:36:06;101086.31;;;18.71;nan
18652;BME280;9455;54.302;10.124;2022-08-19T02:38:33;101091.03;;;18.77;nan
18652;BME280;9455;54.302;10.124;2022-08-19T02:41:02;101099.78;;;18.79;nan
18652;BME280;9455;54.302;10.124;2022-08-19T02:43:33;101105.88;;;18.73;nan
18652;BME280;9455;54.302;10.124;2022-08-19T02:46:10;101097.84;;;18.65;nan
18652;BME280;9455;54.302;10.124;2022-08-19T02:48:38;101097.38;;;18.61;nan
18652;BME280;9455;54.302;10.124;2022-08-19T02:51:05;101088.69;;;18.66;nan
18652;BME280;9455;54.302;10.124;2022-08-19T02:53:31;101093.41;;;18.72;nan
18652;BME280;9455;54.302;10.124;2022-08-19T02:55:58;101097.66;;;18.66;nan
18652;BME280;9455;54.302;10.124;2022-08-19T02:58:25;101090.34;;;18.75;nan
18652;BME280;9455;54.302;10.124;2022-08-19T03:00:55;101088.53;;;18.67;nan
18652;BME280;9455;54.302;10.124;2022-08-19T03:03:21;101086.69;;;18.68;nan
18652;BME280;9455;54.302;10.124;2022-08-19T03:05:49;101085.97;;;18.74;nan
18652;BME280;9455;54.302;10.124;2022-08-19T03:08:16;101098.94;;;18.78;nan
18652;BME280;9455;54.302;10.124;2022-08-19T03:10:45;101099.50;;;18.66;nan
18652;BME280;9455;54.302;10.124;2022-08-19T03:13:13;101104.09;;;18.65;nan
18652;BME280;9455;54.302;10.124;2022-08-19T03:15:41;101101.75;;;18.62;nan
18652;BME280;9455;54.302;10.124;2022-08-19T03:18:09;101108.63;;;18.65;nan
18652;BME280;9455;54.302;10.124;2022-08-19T03:20:41;101103.34;;;18.71;nan
18652;BME280;9455;54.302;10.124;2022-08-19T03:23:09;101102.19;;;18.74;nan
18652;BME280;9455;54.302;10.124;2022-08-19T03:25:38;101114.00;;;18.73;nan
18652;BME280;9455;54.302;10.124;2022-08-19T03:28:05;101105.59;;;18.68;nan
18652;BME280;9455;54.302;10.124;2022-08-19T03:30:32;101114.03;;;18.65;nan
18652;BME280;9455;54.302;10.124;2022-08-19T03:32:59;101103.91;;;18.67;nan
18652;BME280;9455;54.302;10.124;2022-08-19T03:35:25;101107.38;;;18.53;nan
18652;BME280;9455;54.302;10.124;2022-08-19T03:37:52;101104.25;;;18.64;nan
18652;BME280;9455;54.302;10.124;2022-08-19T03:40:20;101097.38;;;18.61;nan
18652;BME280;9455;54.302;10.124;2022-08-19T03:42:47;101103.94;;;18.59;nan
18652;BME280;9455;54.302;10.124;2022-08-19T03:45:14;101113.06;;;18.58;nan
18652;BME280;9455;54.302;10.124;2022-08-19T03:47:41;101122.81;;;18.67;nan
18652;BME280;9455;54.302;10.124;2022-08-19T03:50:08;101116.56;;;18.66;nan
18652;BME280;9455;54.302;10.124;2022-08-19T03:52:35;101123.47;;;18.69;nan
18652;BME280;9455;54.302;10.124;2022-08-19T03:55:03;101132.56;;;18.76;nan
18652;BME280;9455;54.302;10.124;2022-08-19T03:57:31;101133.06;;;18.79;nan
18652;BME280;9455;54.302;10.124;2022-08-19T03:59:59;101141.69;;;18.75;nan
18652;BME280;9455;54.302;10.124;2022-08-19T04:02:25;101145.00;;;18.85;nan
18652;BME280;9455;54.302;10.124;2022-08-19T04:04:53;101142.66;;;18.82;nan
18652;BME280;9455;54.302;10.124;2022-08-19T04:07:20;101142.66;;;18.82;nan
18652;BME280;9455;54.302;10.124;2022-08-19T04:09:46;101144.69;;;18.80;nan
18652;BME280;9455;54.302;10.124;2022-08-19T04:12:13;101141.22;;;18.94;nan
18652;BME280;9455;54.302;10.124;2022-08-19T04:14:41;101149.91;;;18.89;nan
18652;BME280;9455;54.302;10.124;2022-08-19T04:17:08;101155.78;;;18.93;nan
18652;BME280;9455;54.302;10.124;2022-08-19T04:19:35;101162.22;;;18.92;nan
18652;BME280;9455;54.302;10.124;2022-08-19T04:22:03;101167.25;;;18.95;nan
18652;BME280;9455;54.302;10.124;2022-08-19T04:24:30;101166.59;;;18.93;nan
18652;BME280;9455;54.302;10.124;2022-08-19T04:26:59;101179.75;;;18.96;nan
18652;BME280;9455;54.302;10.124;2022-08-19T04:29:25;101178.72;;;18.97;nan
18652;BME280;9455;54.302;10.124;2022-08-19T04:31:55;101181.25;;;18.98;nan
18652;BME280;9455;54.302;10.124;2022-08-19T04:34:24;101173.31;;;18.97;nan
18652;BME280;9455;54.302;10.124;2022-08-19T04:36:52;101177.34;;;19.01;nan
18652;BME280;9455;54.302;10.124;2022-08-19T04:39:21;101179.69;;;19.04;nan
18652;BME280;9455;54.302;10.124;2022-08-19T04:41:48;101183.66;;;18.93;nan
18652;BME280;9455;54.302;10.124;2022-08-19T04:44:32;101184.47;;;18.94;nan
18652;BME280;9455;54.302;10.124;2022-08-19T04:47:02;101174.63;;;19.01;nan
18652;BME280;9455;54.302;10.124;2022-08-19T04:49:31;101181.06;;;19.00;nan
18652;BME280;9455;54.302;10.124;2022-08-19T04:51:57;101183.31;;;18.96;nan
18652;BME280;9455;54.302;10.124;2022-08-19T04:54:25;101189.53;;;18.97;nan
18652;BME280;9455;54.302;10.124;2022-08-19T04:56:52;101182.97;;;18.99;nan
18652;BME280;9455;54.302;10.124;2022-08-19T04:59:20;101182.09;;;18.99;nan
18652;BME280;9455;54.302;10.124;2022-08-19T05:01:47;101187.16;;;19.02;nan
18652;BME280;9455;54.302;10.124;2022-08-19T05:04:18;101186.66;;;18.98;nan
18652;BME280;9455;54.302;10.124;2022-08-19T05:06:45;101182.97;;;18.91;nan
18652;BME280;9455;54.302;10.124;2022-08-19T05:09:12;101177.03;;;18.96;nan
18652;BME280;9455;54.302;10.124;2022-08-19T05:11:39;101179.06;;;19.02;nan
18652;BME280;9455;54.302;10.124;2022-08-19T05:14:07;101167.22;;;19.03;nan
18652;BME280;9455;54.302;10.124;2022-08-19T05:16:33;101179.06;;;18.94;nan
18652;BME280;9455;54.302;10.124;2022-08-19T05:19:00;101181.25;;;18.98;nan
18652;BME280;9455;54.302;10.124;2022-08-19T05:21:46;101192.91;;;18.99;nan
18652;BME280;9455;54.302;10.124;2022-08-19T05:24:30;101180.78;;;18.95;nan
18652;BME280;9455;54.302;10.124;2022-08-19T05:26:57;101181.47;;;18.89;nan
18652;BME280;9455;54.302;10.124;2022-08-19T05:29:26;101183.31;;;18.96;nan
18652;BME280;9455;54.302;10.124;2022-08-19T05:31:54;101187.69;;;18.97;nan
18652;BME280;9455;54.302;10.124;2022-08-19T05:34:23;101189.53;;;18.97;nan
18652;BME280;9455;54.302;10.124;2022-08-19T05:36:55;101190.75;;;18.94;nan
18652;BME280;9455;54.302;10.124;2022-08-19T05:39:24;101194.13;;;18.96;nan
18652;BME280;9455;54.302;10.124;2022-08-19T05:41:54;101193.94;;;18.98;nan
18652;BME280;9455;54.302;10.124;2022-08-19T05:44:23;101206.44;;;18.99;nan
18652;BME280;9455;54.302;10.124;2022-08-19T05:46:50;101208.44;;;19.05;nan
18652;BME280;9455;54.302;10.124;2022-08-19T05:49:21;101205.38;;;19.08;nan
18652;BME280;9455;54.302;10.124;2022-08-19T05:51:48;101211.13;;;19.05;nan
18652;BME280;9455;54.302;10.124;2022-08-19T05:54:16;101201.31;;;19.12;nan
18652;BME280;9455;54.302;10.124;2022-08-19T05:56:43;101204.28;;;19.17;nan
18652;BME280;9455;54.302;10.124;2022-08-19T05:59:13;101207.69;;;19.11;nan
18652;BME280;9455;54.302;10.124;2022-08-19T06:01:42;101213.09;;;19.11;nan
18652;BME280;9455;54.302;10.124;2022-08-19T06:04:09;101208.72;;;19.10;nan
18652;BME280;9455;54.302;10.124;2022-08-19T06:06:35;101207.94;;;19.01;nan
18652;BME280;9455;54.302;10.124;2022-08-19T06:09:03;101204.00;;;19.12;nan
18652;BME280;9455;54.302;10.124;2022-08-19T06:11:37;101205.06;;;19.03;nan
18652;BME280;9455;54.302;10.124;2022-08-19T06:14:06;101196.88;;;19.11;nan
18652;BME280;9455;54.302;10.124;2022-08-19T06:16:34;101206.16;;;19.17;nan
18652;BME280;9455;54.302;10.124;2022-08-19T06:19:03;101201.13;;;19.14;nan
18652;BME280;9455;54.302;10.124;2022-08-19T06:21:32;101197.50;;;19.21;nan
18652;BME280;9455;54.302;10.124;2022-08-19T06:23:59;101203.94;;;19.20;nan
18652;BME280;9455;54.302;10.124;2022-08-19T06:26:26;101202.97;;;19.13;nan
18652;BME280;9455;54.302;10.124;2022-08-19T06:28:54;101196.19;;;19.17;nan
18652;BME280;9455;54.302;10.124;2022-08-19T06:31:23;101195.84;;;19.20;nan
18652;BME280;9455;54.302;10.124;2022-08-19T06:33:50;101203.09;;;19.28;nan
18652;BME280;9455;54.302;10.124;2022-08-19T06:36:22;101203.78;;;19.22;nan
18652;BME280;9455;54.302;10.124;2022-08-19T06:38:52;101198.88;;;19.25;nan
18652;BME280;9455;54.302;10.124;2022-08-19T06:41:19;101195.38;;;19.39;nan
18652;BME280;9455;54.302;10.124;2022-08-19T06:43:45;101191.69;;;19.40;nan
18652;BME280;9455;54.302;10.124;2022-08-19T06:46:16;101196.06;;;19.41;nan
18652;BME280;9455;54.302;10.124;2022-08-19T06:48:44;101193.19;;;19.43;nan
18652;BME280;9455;54.302;10.124;2022-08-19T06:51:11;101188.56;;;19.51;nan
18652;BME280;9455;54.302;10.124;2022-08-19T06:53:40;101195.78;;;19.59;nan
18652;BME280;9455;54.302;10.124;2022-08-19T06:56:12;101202.63;;;19.47;nan
18652;BME280;9455;54.302;10.124;2022-08-19T06:58:39;101202.75;;;19.53;nan
18652;BME280;9455;54.302;10.124;2022-08-19T07:01:05;101203.34;;;19.63;nan
18652;BME280;9455;54.302;10.124;2022-08-19T07:03:35;101203.28;;;19.71;nan
18652;BME280;9455;54.302;10.124;2022-08-19T07:06:02;101202.06;;;19.74;nan
18652;BME280;9455;54.302;10.124;2022-08-19T07:08:29;101201.03;;;19.75;nan
18652;BME280;9455;54.302;10.124;2022-08-19T07:10:56;101207.84;;;19.71;nan
18652;BME280;9455;54.302;10.124;2022-08-19T07:13:23;101212.00;;;19.81;nan
18652;BME280;9455;54.302;10.124;2022-08-19T07:15:50;101214.91;;;19.80;nan
18652;BME280;9455;54.302;10.124;2022-08-19T07:18:18;101215.94;;;19.93;nan
18652;BME280;9455;54.302;10.124;2022-08-19T07:20:46;101218.00;;;19.91;nan
18652;BME280;9455;54.302;10.124;2022-08-19T07:23:13;101228.97;;;19.75;nan
18652;BME280;9455;54.302;10.124;2022-08-19T07:25:40;101230.03;;;19.89;nan
18652;BME280;9455;54.302;10.124;2022-08-19T07:28:08;101232.19;;;19.93;nan
18652;BME280;9455;54.302;10.124;2022-08-19T07:30:36;101231.31;;;19.78;nan
18652;BME280;9455;54.302;10.124;2022-08-19T07:33:04;101233.88;;;19.94;nan
18652;BME280;9455;54.302;10.124;2022-08-19T07:35:30;101231.84;;;19.74;nan
18652;BME280;9455;54.302;10.124;2022-08-19T07:38:00;101240.75;;;19.82;nan
18652;BME280;9455;54.302;10.124;2022-08-19T07:40:29;101241.63;;;19.75;nan
18652;BME280;9455;54.302;10.124;2022-08-19T07:42:56;101235.22;;;19.76;nan
18652;BME280;9455;54.302;10.124;2022-08-19T07:45:23;101235.16;;;19.61;nan
18652;BME280;9455;54.302;10.124;2022-08-19T07:47:49;101238.56;;;19.55;nan
18652;BME280;9455;54.302;10.124;2022-08-19T07:50:18;101239.28;;;19.49;nan
18652;BME280;9455;54.302;10.124;2022-08-19T07:52:45;101238.47;;;19.49;nan
18652;BME280;9455;54.302;10.124;2022-08-19T07:55:16;101241.09;;;19.57;nan
18652;BME280;9455;54.302;10.124;2022-08-19T07:57:44;101250.25;;;19.56;nan
18652;BME280;9455;54.302;10.124;2022-08-19T08:00:11;101253.59;;;19.58;nan
18652;BME280;9455;54.302;10.124;2022-08-19T08:02:38;101254.44;;;19.58;nan
18652;BME280;9455;54.302;10.124;2022-08-19T08:05:08;101254.09;;;19.61;nan
18652;BME280;9455;54.302;10.124;2022-08-19T08:07:52;101255.41;;;19.65;nan
18652;BME280;9455;54.302;10.124;2022-08-19T08:10:37;101249.16;;;19.65;nan
18652;BME280;9455;54.302;10.124;2022-08-19T08:13:04;101254.56;;;19.65;nan
18652;BME280;9455;54.302;10.124;2022-08-19T08:15:31;101251.41;;;19.61;nan
18652;BME280;9455;54.302;10.124;2022-08-19T08:17:58;101255.13;;;19.60;nan
18652;BME280;9455;54.302;10.124;2022-08-19T08:20:24;101250.38;;;19.62;nan
18652;BME280;9455;54.302;10.124;2022-08-19T08:22:51;101251.50;;;19.68;nan
18652;BME280;9455;54.302;10.124;2022-08-19T08:25:37;101255.78;;;19.62;nan
18652;BME280;9455;54.302;10.124;2022-08-19T08:28:04;101267.31;;;19.56;nan
18652;BME280;9455;54.302;10.124;2022-08-19T08:30:32;101268.34;;;19.55;nan
18652;BME280;9455;54.302;10.124;2022-08-19T08:33:01;101265.63;;;19.55;nan
18652;BME280;9455;54.302;10.124;2022-08-19T08:35:27;101267.72;;;19.45;nan
18652;BME280;9455;54.302;10.124;2022-08-19T08:37:54;101273.06;;;19.31;nan
18652;BME280;9455;54.302;10.124;2022-08-19T08:40:23;101269.84;;;19.27;nan
18652;BME280;9455;54.302;10.124;2022-08-19T08:42:57;101273.44;;;19.50;nan
18652;BME280;9455;54.302;10.124;2022-08-19T08:45:28;101274.28;;;19.51;nan
18652;BME280;9455;54.302;10.124;2022-08-19T08:47:57;101273.41;;;19.58;nan
18652;BME280;9455;54.302;10.124;2022-08-19T08:50:31;101283.53;;;19.56;nan
18652;BME280;9455;54.302;10.124;2022-08-19T08:53:02;101285.25;;;19.57;nan
18652;BME280;9455;54.302;10.124;2022-08-19T08:55:30;101286.50;;;19.69;nan
18652;BME280;9455;54.302;10.124;2022-08-19T08:58:03;101283.09;;;19.75;nan
18652;BME280;9455;54.302;10.124;2022-08-19T09:00:32;101282.97;;;19.69;nan
18652;BME280;9455;54.302;10.124;2022-08-19T09:03:01;101286.75;;;19.82;nan
18652;BME280;9455;54.302;10.124;2022-08-19T09:05:35;101276.34;;;19.94;nan
18652;BME280;9455;54.302;10.124;2022-08-19T09:08:11;101281.41;;;19.97;nan
18652;BME280;9455;54.302;10.124;2022-08-19T09:10:44;101283.88;;;20.06;nan
18652;BME280;9455;54.302;10.124;2022-08-19T09:13:27;101280.63;;;19.88;nan
18652;BME280;9455;54.302;10.124;2022-08-19T09:16:00;101288.69;;;19.96;nan
18652;BME280;9455;54.302;10.124;2022-08-19T09:18:39;101284.31;;;19.95;nan
18652;BME280;9455;54.302;10.124;2022-08-19T09:21:06;101291.38;;;19.96;nan
18652;BME280;9455;54.302;10.124;2022-08-19T09:23:34;101289.81;;;20.02;nan
18652;BME280;9455;54.302;10.124;2022-08-19T09:26:00;101290.06;;;19.92;nan
18652;BME280;9455;54.302;10.124;2022-08-19T09:28:29;101287.41;;;19.84;nan
18652;BME280;9455;54.302;10.124;2022-08-19T09:30:56;101290.78;;;19.86;nan
18652;BME280;9455;54.302;10.124;2022-08-19T09:33:23;101292.06;;;19.98;nan
18652;BME280;9455;54.302;10.124;2022-08-19T09:35:49;101292.47;;;19.87;nan
18652;BME280;9455;54.302;10.124;2022-08-19T09:38:16;101289.41;;;19.90;nan
18652;BME280;9455;54.302;10.124;2022-08-19T09:40:42;101300.28;;;19.82;nan
18652;BME280;9455;54.302;10.124;2022-08-19T09:43:09;101298.81;;;19.72;nan
18652;BME280;9455;54.302;10.124;2022-08-19T09:45:37;101301.72;;;19.70;nan
18652;BME280;9455;54.302;10.124;2022-08-19T09:48:04;101305.19;;;19.56;nan
18652;BME280;9455;54.302;10.124;2022-08-19T09:50:31;101307.88;;;19.64;nan
18652;BME280;9455;54.302;10.124;2022-08-19T09:53:00;101305.09;;;19.72;nan
18652;BME280;9455;54.302;10.124;2022-08-19T09:55:27;101306.78;;;19.73;nan
18652;BME280;9455;54.302;10.124;2022-08-19T09:57:54;101307.81;;;19.72;nan
18652;BME280;9455;54.302;10.124;2022-08-19T10:00:21;101305.78;;;19.74;nan
18652;BME280;9455;54.302;10.124;2022-08-19T10:02:49;101296.06;;;19.57;nan
18652;BME280;9455;54.302;10.124;2022-08-19T10:05:15;101302.91;;;19.68;nan
18652;BME280;9455;54.302;10.124;2022-08-19T10:07:59;101297.25;;;19.77;nan
18652;BME280;9455;54.302;10.124;2022-08-19T10:10:26;101298.13;;;19.78;nan
18652;BME280;9455;54.302;10.124;2022-08-19T10:12:53;101310.22;;;19.67;nan
18652;BME280;9455;54.302;10.124;2022-08-19T10:15:21;101298.81;;;19.72;nan
18652;BME280;9455;54.302;10.124;2022-08-19T10:17:49;101291.69;;;19.79;nan
18652;BME280;9455;54.302;10.124;2022-08-19T10:20:15;101304.75;;;19.75;nan
18652;BME280;9455;54.302;10.124;2022-08-19T10:22:42;101299.25;;;19.83;nan
18652;BME280;9455;54.302;10.124;2022-08-19T10:25:09;101306.00;;;19.87;nan
18652;BME280;9455;54.302;10.124;2022-08-19T10:27:35;101308.69;;;19.87;nan
18652;BME280;9455;54.302;10.124;2022-08-19T10:30:03;101305.53;;;19.84;nan
18652;BME280;9455;54.302;10.124;2022-08-19T10:32:30;101304.03;;;19.81;nan
18652;BME280;9455;54.302;10.124;2022-08-19T10:34:58;101295.94;;;19.73;nan
18652;BME280;9455;54.302;10.124;2022-08-19T10:37:25;101298.97;;;19.78;nan
18652;BME280;9455;54.302;10.124;2022-08-19T10:39:52;101296.19;;;19.86;nan
18652;BME280;9455;54.302;10.124;2022-08-19T10:42:18;101299.25;;;19.83;nan
18652;BME280;9455;54.302;10.124;2022-08-19T10:44:45;101299.94;;;19.85;nan
18652;BME280;9455;54.302;10.124;2022-08-19T10:47:13;101293.41;;;19.94;nan
18652;BME280;9455;54.302;10.124;2022-08-19T10:49:40;101299.94;;;20.08;nan
18652;BME280;9455;54.302;10.124;2022-08-19T10:52:22;101292.13;;;20.13;nan
18652;BME280;9455;54.302;10.124;2022-08-19T10:55:01;101292.91;;;20.21;nan
18652;BME280;9455;54.302;10.124;2022-08-19T10:57:45;101292.25;;;20.19;nan
18652;BME280;9455;54.302;10.124;2022-08-19T11:00:12;101288.75;;;20.33;nan
18652;BME280;9455;54.302;10.124;2022-08-19T11:02:39;101292.78;;;20.37;nan
18652;BME280;9455;54.302;10.124;2022-08-19T11:05:07;101284.28;;;20.40;nan
18652;BME280;9455;54.302;10.124;2022-08-19T11:07:37;101285.31;;;20.54;nan
18652;BME280;9455;54.302;10.124;2022-08-19T11:10:05;101288.00;;;20.39;nan
18652;BME280;9455;54.302;10.124;2022-08-19T11:12:32;101285.72;;;20.28;nan
18652;BME280;9455;54.302;10.124;2022-08-19T11:14:59;101285.84;;;20.35;nan
18652;BME280;9455;54.302;10.124;2022-08-19T11:17:25;101295.28;;;20.39;nan
18652;BME280;9455;54.302;10.124;2022-08-19T11:19:52;101283.28;;;20.56;nan
18652;BME280;9455;54.302;10.124;2022-08-19T11:22:18;101288.94;;;20.46;nan
18652;BME280;9455;54.302;10.124;2022-08-19T11:24:46;101283.50;;;20.46;nan
18652;BME280;9455;54.302;10.124;2022-08-19T11:27:13;101283.19;;;20.78;nan
18652;BME280;9455;54.302;10.124;2022-08-19T11:29:40;101281.31;;;20.79;nan
18652;BME280;9455;54.302;10.124;2022-08-19T11:32:09;101278.41;;;20.80;nan
18652;BME280;9455;54.302;10.124;2022-08-19T11:34:36;101280.09;;;20.67;nan
18652;BME280;9455;54.302;10.124;2022-08-19T11:37:05;101287.31;;;20.74;nan
18652;BME280;9455;54.302;10.124;2022-08-19T11:39:33;101284.94;;;20.86;nan
18652;BME280;9455;54.302;10.124;2022-08-19T11:42:02;101283.78;;;21.03;nan
18652;BME280;9455;54.302;10.124;2022-08-19T11:44:49;101282.22;;;20.94;nan
18652;BME280;9455;54.302;10.124;2022-08-19T11:47:16;101277.94;;;20.91;nan
18652;BME280;9455;54.302;10.124;2022-08-19T11:49:43;101281.69;;;20.90;nan
18652;BME280;9455;54.302;10.124;2022-08-19T11:52:09;101281.34;;;20.93;nan
18652;BME280;9455;54.302;10.124;2022-08-19T11:54:36;101278.78;;;20.92;nan
18652;BME280;9455;54.302;10.124;2022-08-19T11:57:04;101284.22;;;20.92;nan
18652;BME280;9455;54.302;10.124;2022-08-19T11:59:31;101284.59;;;20.89;nan
18652;BME280;9455;54.302;10.124;2022-08-19T12:01:57;101292.47;;;20.98;nan
18652;BME280;9455;54.302;10.124;2022-08-19T12:04:24;101291.69;;;20.75;nan
18652;BME280;9455;54.302;10.124;2022-08-19T12:06:50;101292.06;;;20.72;nan
18652;BME280;9455;54.302;10.124;2022-08-19T12:09:18;101293.47;;;20.68;nan
18652;BME280;9455;54.302;10.124;2022-08-19T12:11:44;101287.00;;;20.69;nan
18652;BME280;9455;54.302;10.124;2022-08-19T12:14:13;101288.78;;;20.62;nan
18652;BME280;9455;54.302;10.124;2022-08-19T12:16:41;101291.03;;;20.59;nan
18652;BME280;9455;54.302;10.124;2022-08-19T12:19:08;101295.59;;;20.58;nan
18652;BME280;9455;54.302;10.124;2022-08-19T12:21:35;101293.63;;;20.52;nan
18652;BME280;9455;54.302;10.124;2022-08-19T12:24:03;101295.22;;;20.47;nan
18652;BME280;9455;54.302;10.124;2022-08-19T12:26:31;101288.44;;;20.28;nan
18652;BME280;9455;54.302;10.124;2022-08-19T12:28:58;101297.25;;;20.45;nan
18652;BME280;9455;54.302;10.124;2022-08-19T12:31:27;101298.94;;;20.46;nan
18652;BME280;9455;54.302;10.124;2022-08-19T12:33:54;101298.56;;;20.34;nan
18652;BME280;9455;54.302;10.124;2022-08-19T12:36:21;101300.16;;;20.43;nan
18652;BME280;9455;54.302;10.124;2022-08-19T12:38:48;101298.81;;;20.39;nan
18652;BME280;9455;54.302;10.124;2022-08-19T12:41:16;101292.09;;;20.35;nan
18652;BME280;9455;54.302;10.124;2022-08-19T12:43:43;101289.69;;;20.40;nan
18652;BME280;9455;54.302;10.124;2022-08-19T12:46:11;101287.00;;;20.40;nan
18652;BME280;9455;54.302;10.124;2022-08-19T12:48:39;101290.28;;;20.50;nan
18652;BME280;9455;54.302;10.124;2022-08-19T12:51:09;101281.13;;;20.51;nan
18652;BME280;9455;54.302;10.124;2022-08-19T12:53:36;101287.75;;;20.63;nan
18652;BME280;9455;54.302;10.124;2022-08-19T12:56:03;101282.84;;;20.81;nan
18652;BME280;9455;54.302;10.124;2022-08-19T12:58:30;101286.34;;;20.67;nan
18652;BME280;9455;54.302;10.124;2022-08-19T13:00:57;101284.13;;;20.85;nan
18652;BME280;9455;54.302;10.124;2022-08-19T13:03:24;101287.13;;;20.90;nan
18652;BME280;9455;54.302;10.124;2022-08-19T13:05:55;101288.63;;;20.93;nan
18652;BME280;9455;54.302;10.124;2022-08-19T13:08:22;101292.28;;;21.00;nan
18652;BME280;9455;54.302;10.124;2022-08-19T13:10:49;101289.84;;;21.05;nan
18652;BME280;9455;54.302;10.124;2022-08-19T13:13:16;101294.44;;;21.04;nan
18652;BME280;9455;54.302;10.124;2022-08-19T13:15:43;101290.97;;;21.10;nan